createdAt,value
2024-03-22T00:00:55.150Z,11.2
2024-03-22T00:07:15.163Z,11.2
2024-03-22T00:13:37.213Z,10.3
2024-03-22T00:19:57.199Z,10.3
2024-03-22T00:26:19.253Z,12.9
2024-03-22T00:32:39.205Z,12.9
2024-03-22T00:39:01.235Z,9.3
2024-03-22T00:45:21.207Z,9.3
2024-03-22T00:51:43.252Z,8.4
2024-03-22T00:58:03.202Z,8.4
2024-03-22T01:04:25.240Z,9
2024-03-22T01:10:45.159Z,9
2024-03-22T01:17:07.330Z,7.8
2024-03-22T01:23:27.219Z,7.8
2024-03-22T01:29:49.240Z,9.9
2024-03-22T01:36:09.223Z,9.9
2024-03-22T01:42:31.187Z,8.3
2024-03-22T01:48:51.239Z,8.3
2024-03-22T01:55:13.274Z,7.3
2024-03-22T02:01:33.172Z,7.3
2024-03-22T02:07:55.239Z,8.1
2024-03-22T02:14:15.153Z,8.1
2024-03-22T02:20:37.343Z,5.5
2024-03-22T02:26:57.249Z,5.5
2024-03-22T02:33:19.319Z,8.3
2024-03-22T02:39:39.176Z,8.3
2024-03-22T02:46:01.205Z,8.3
2024-03-22T02:52:21.157Z,8.3
2024-03-22T02:58:43.300Z,8.6
2024-03-22T03:05:03.191Z,8.6
2024-03-22T03:11:25.227Z,8.6
2024-03-22T03:17:45.183Z,8.6
2024-03-22T03:24:07.497Z,5.9
2024-03-22T03:30:27.213Z,5.9
2024-03-22T03:36:49.292Z,7.6
2024-03-22T03:43:09.125Z,7.6
2024-03-22T03:49:31.211Z,10.7
2024-03-22T03:55:51.252Z,10.7
2024-03-22T04:02:13.195Z,7.1
2024-03-22T04:08:33.321Z,7.1
2024-03-22T04:31:54.854Z,20.3
2024-03-22T04:38:16.778Z,20.3
2024-03-22T04:44:36.118Z,20.3
2024-03-22T04:50:58.199Z,10.2
2024-03-22T04:57:18.225Z,10.2
2024-03-22T05:03:40.218Z,8.9
2024-03-22T05:10:00.300Z,8.9
2024-03-22T05:16:22.218Z,9.3
2024-03-22T05:22:42.155Z,9.3
2024-03-22T05:29:04.208Z,5.5
2024-03-22T05:35:24.150Z,5.5
2024-03-22T05:41:46.265Z,7.2
2024-03-22T05:48:06.280Z,7.2
2024-03-22T05:54:28.162Z,8.6
2024-03-22T06:00:48.222Z,8.6
2024-03-22T06:07:10.254Z,3.6
2024-03-22T06:13:30.160Z,3.6
2024-03-22T06:19:52.257Z,9
2024-03-22T06:26:12.249Z,9
2024-03-22T06:32:34.176Z,6.2
2024-03-22T06:38:54.325Z,6.2
2024-03-22T06:45:16.192Z,3.7
2024-03-22T06:51:36.255Z,3.7
2024-03-22T06:57:58.188Z,3.7
2024-03-22T07:04:18.166Z,3.7
2024-03-22T07:10:40.264Z,3.7
2024-03-22T07:17:00.184Z,3.7
2024-03-22T07:23:22.261Z,4
2024-03-22T07:29:42.177Z,4
2024-03-22T07:36:04.187Z,2.7
2024-03-22T07:42:24.232Z,2.7
2024-03-22T07:48:46.127Z,5.3
2024-03-22T07:55:06.274Z,5.3
2024-03-22T08:01:28.149Z,3.1
2024-03-22T08:07:48.164Z,3.1
2024-03-22T08:14:10.300Z,4.5
2024-03-22T08:20:30.197Z,4.5
2024-03-22T08:26:52.269Z,4.6
2024-03-22T08:33:13.128Z,4.6
2024-03-22T08:39:34.217Z,2.3
2024-03-22T08:45:54.213Z,2.3
2024-03-22T08:52:16.118Z,5.3
2024-03-22T08:58:36.202Z,5.3
2024-03-22T09:04:58.370Z,5.2
2024-03-22T09:11:18.638Z,5.2
2024-03-22T09:17:40.478Z,5.6
2024-03-22T09:24:00.463Z,5.6
2024-03-22T09:46:29.228Z,15.4
2024-03-22T09:52:49.155Z,15.4
2024-03-22T09:59:11.189Z,15.4
2024-03-22T10:05:31.161Z,15.4
2024-03-22T10:11:53.149Z,9
2024-03-22T10:18:13.177Z,9
2024-03-22T10:24:35.223Z,6.1
2024-03-22T10:30:55.266Z,6.1
2024-03-22T10:37:17.228Z,5.8
2024-03-22T10:43:37.185Z,5.8
2024-03-22T10:49:59.128Z,6.6
2024-03-22T10:56:19.542Z,6.6
2024-03-22T11:02:41.234Z,3.5
2024-03-22T11:09:01.228Z,3.5
2024-03-22T11:15:23.143Z,5.6
2024-03-22T11:21:43.209Z,5.6
2024-03-22T11:28:05.122Z,2.8
2024-03-22T11:34:25.156Z,2.8
2024-03-22T11:40:47.196Z,2
2024-03-22T11:47:07.139Z,2
2024-03-22T11:53:29.167Z,1.6
2024-03-22T11:59:59.202Z,1.6
2024-03-22T12:06:11.412Z,3
2024-03-22T12:12:31.395Z,3
2024-03-22T12:18:53.363Z,0.5
2024-03-22T12:25:13.147Z,0.5
2024-03-22T12:31:35.190Z,1.7
2024-03-22T12:37:55.171Z,1.7
2024-03-22T12:44:17.118Z,1.3
2024-03-22T12:50:37.178Z,1.3
2024-03-22T12:56:59.159Z,1.8
2024-03-22T13:03:19.217Z,1.8
2024-03-22T13:09:41.162Z,1.7
2024-03-22T13:16:01.195Z,1.7
2024-03-22T13:22:23.158Z,1.3
2024-03-22T13:28:43.482Z,1.3
2024-03-22T13:35:05.424Z,0.6
2024-03-22T13:41:25.357Z,0.6
2024-03-22T13:47:47.157Z,3.1
2024-03-22T13:54:07.130Z,3.1
2024-03-22T14:00:29.184Z,0.8
2024-03-22T14:06:49.145Z,0.8
2024-03-22T14:13:11.123Z,1.7
2024-03-22T14:19:30.232Z,1.7
2024-03-22T14:25:52.111Z,1.1
2024-03-22T14:32:12.159Z,1.1
2024-03-22T14:38:34.165Z,1.6
2024-03-22T15:01:01.602Z,6.7
2024-03-22T15:07:21.152Z,6.7
2024-03-22T15:13:43.163Z,6.7
2024-03-22T15:20:03.137Z,6.7
2024-03-22T15:26:25.179Z,2.5
2024-03-22T15:32:45.411Z,2.5
2024-03-22T15:39:07.708Z,3.2
2024-03-22T15:45:28.345Z,3.2
2024-03-22T15:51:50.131Z,5.9
2024-03-22T15:58:10.216Z,5.9
2024-03-22T16:04:32.133Z,4.9
2024-03-22T16:10:52.156Z,4.9
2024-03-22T16:17:14.162Z,5.9
2024-03-22T16:23:35.316Z,5.9
2024-03-22T16:29:56.182Z,5.6
2024-03-22T16:36:16.151Z,5.6
2024-03-22T16:42:38.187Z,5.9
2024-03-22T16:48:58.109Z,5.9
2024-03-22T16:55:19.235Z,9.1
2024-03-22T17:01:39.171Z,9.1
2024-03-22T17:08:01.119Z,3.3
2024-03-22T17:14:21.199Z,3.3
2024-03-22T17:20:43.146Z,4.7
2024-03-22T17:27:03.178Z,4.7
2024-03-22T17:33:25.163Z,5.9
2024-03-22T17:39:45.126Z,5.9
2024-03-22T17:46:07.190Z,8
2024-03-22T17:52:27.145Z,8
2024-03-22T17:58:49.338Z,6.6
2024-03-22T18:05:09.236Z,6.6
2024-03-22T18:11:31.397Z,10.2
2024-03-22T18:17:51.499Z,10.2
2024-03-22T18:24:13.148Z,10.8
2024-03-22T18:30:33.207Z,10.8
2024-03-22T18:36:55.156Z,14.3
2024-03-22T18:43:15.180Z,14.3
2024-03-22T18:49:37.181Z,12.4
2024-03-22T18:55:57.202Z,12.4
2024-03-22T19:02:19.407Z,20.5
2024-03-22T19:08:39.218Z,20.5
2024-03-22T19:15:01.232Z,15.2
2024-03-22T19:21:21.100Z,15.2
2024-03-22T19:27:42.154Z,7.7
2024-03-22T19:34:02.149Z,7.7
2024-03-22T19:40:24.176Z,8.6
2024-03-22T19:46:44.193Z,8.6
2024-03-22T19:53:06.137Z,6.5
2024-03-22T20:08:36.161Z,8
2024-03-22T20:14:55.136Z,8
2024-03-22T20:21:17.132Z,13.3
2024-03-22T20:27:37.243Z,13.3
2024-03-22T20:33:59.154Z,13.3
2024-03-22T20:40:19.200Z,13.3
2024-03-22T20:46:41.146Z,5.5
2024-03-22T20:53:01.174Z,5.5
2024-03-22T20:59:23.123Z,8
2024-03-22T21:05:43.141Z,8
2024-03-22T21:12:05.186Z,7.3
2024-03-22T21:18:25.148Z,7.3
2024-03-22T21:24:47.186Z,4.4
2024-03-22T21:31:07.130Z,4.4
2024-03-22T21:37:29.154Z,7.7
2024-03-22T21:43:49.160Z,7.7
2024-03-22T21:50:11.168Z,6.3
2024-03-22T21:56:31.429Z,6.3
2024-03-22T22:02:53.631Z,10.7
2024-03-22T22:09:13.193Z,10.7
2024-03-22T22:15:36.136Z,10
2024-03-22T22:21:55.896Z,10
2024-03-22T22:28:17.156Z,6.4
2024-03-22T22:34:37.122Z,6.4
2024-03-22T22:40:59.233Z,9.4
2024-03-22T22:47:19.153Z,9.4
2024-03-22T22:53:41.203Z,3.8
2024-03-22T23:00:01.196Z,3.8
2024-03-22T23:22:59.141Z,8
2024-03-22T23:29:19.257Z,8
2024-03-22T23:35:41.170Z,8
2024-03-22T23:42:01.150Z,8
2024-03-22T23:48:23.241Z,3.2
2024-03-22T23:54:43.175Z,3.2
